sensor_id;sensor_type;location;lat;lon;timestamp;pressure;altitude;pressure_sealevel;temperature;humidity
24858;BME280;12935;50.782;6.074;2022-07-23T00:00:53;99723.75;;;18.02;100.00
24858;BME280;12935;50.782;6.074;2022-07-23T00:03:19;99722.44;;;17.94;100.00
24858;BME280;12935;50.782;6.074;2022-07-23T00:05:44;99721.16;;;17.82;100.00
24858;BME280;12935;50.782;6.074;2022-07-23T00:08:09;99705.78;;;17.81;100.00
24858;BME280;12935;50.782;6.074;2022-07-23T00:10:35;99711.75;;;17.79;100.00
24858;BME280;12935;50.782;6.074;2022-07-23T00:13:00;99704.03;;;17.87;100.00
24858;BME280;12935;50.782;6.074;2022-07-23T00:15:25;99706.06;;;17.99;100.00
24858;BME280;12935;50.782;6.074;2022-07-23T00:17:51;99705.53;;;18.04;100.00
24858;BME280;12935;50.782;6.074;2022-07-23T00:20:17;99710.38;;;18.00;100.00
24858;BME280;12935;50.782;6.074;2022-07-23T00:22:55;99701.97;;;17.91;100.00
24858;BME280;12935;50.782;6.074;2022-07-23T00:25:22;99708.88;;;17.83;100.00
24858;BME280;12935;50.782;6.074;2022-07-23T00:27:47;99715.78;;;17.91;100.00
24858;BME280;12935;50.782;6.074;2022-07-23T00:30:13;99714.56;;;17.92;100.00
24858;BME280;12935;50.782;6.074;2022-07-23T00:32:49;99718.31;;;17.98;100.00
24858;BME280;12935;50.782;6.074;2022-07-23T00:35:15;99706.16;;;17.96;100.00
24858;BME280;12935;50.782;6.074;2022-07-23T00:37:42;99712.59;;;17.93;100.00
24858;BME280;12935;50.782;6.074;2022-07-23T00:40:08;99707.88;;;17.77;100.00
24858;BME280;12935;50.782;6.074;2022-07-23T00:42:33;99721.19;;;17.66;100.00
24858;BME280;12935;50.782;6.074;2022-07-23T00:44:59;99720.06;;;17.63;100.00
24858;BME280;12935;50.782;6.074;2022-07-23T00:47:24;99721.97;;;17.66;100.00
24858;BME280;12935;50.782;6.074;2022-07-23T00:49:49;99711.75;;;17.79;100.00
24858;BME280;12935;50.782;6.074;2022-07-23T00:52:15;99710.22;;;17.78;100.00
24858;BME280;12935;50.782;6.074;2022-07-23T00:54:41;99704.78;;;17.75;100.00
24858;BME280;12935;50.782;6.074;2022-07-23T00:57:06;99711.53;;;17.74;100.00
24858;BME280;12935;50.782;6.074;2022-07-23T00:59:31;99712.38;;;17.71;100.00
24858;BME280;12935;50.782;6.074;2022-07-23T01:01:57;99717.47;;;17.72;100.00
24858;BME280;12935;50.782;6.074;2022-07-23T01:04:22;99716.38;;;17.70;100.00
24858;BME280;12935;50.782;6.074;2022-07-23T01:06:48;99720.69;;;17.54;100.00
24858;BME280;12935;50.782;6.074;2022-07-23T01:09:13;99725.03;;;17.39;100.00
24858;BME280;12935;50.782;6.074;2022-07-23T01:11:39;99716.84;;;17.36;100.00
24858;BME280;12935;50.782;6.074;2022-07-23T01:14:10;99717.25;;;17.50;100.00
24858;BME280;12935;50.782;6.074;2022-07-23T01:16:36;99715.06;;;17.58;100.00
24858;BME280;12935;50.782;6.074;2022-07-23T01:19:01;99709.13;;;17.60;100.00
24858;BME280;12935;50.782;6.074;2022-07-23T01:21:27;99707.13;;;17.60;100.00
24858;BME280;12935;50.782;6.074;2022-07-23T01:23:52;99701.59;;;17.60;100.00
24858;BME280;12935;50.782;6.074;2022-07-23T01:26:18;99701.25;;;17.58;100.00
24858;BME280;12935;50.782;6.074;2022-07-23T01:28:43;99698.50;;;17.58;100.00
24858;BME280;12935;50.782;6.074;2022-07-23T01:31:08;99701.22;;;17.45;100.00
24858;BME280;12935;50.782;6.074;2022-07-23T01:33:33;99696.91;;;17.44;100.00
24858;BME280;12935;50.782;6.074;2022-07-23T01:35:59;99704.84;;;17.42;100.00
24858;BME280;12935;50.782;6.074;2022-07-23T01:38:24;99692.75;;;17.36;100.00
24858;BME280;12935;50.782;6.074;2022-07-23T01:40:49;99697.06;;;17.37;100.00
24858;BME280;12935;50.782;6.074;2022-07-23T01:43:15;99687.22;;;17.36;100.00
24858;BME280;12935;50.782;6.074;2022-07-23T01:45:40;99691.63;;;17.34;100.00
24858;BME280;12935;50.782;6.074;2022-07-23T01:48:06;99691.06;;;17.26;100.00
24858;BME280;12935;50.782;6.074;2022-07-23T01:50:32;99685.63;;;17.23;100.00
24858;BME280;12935;50.782;6.074;2022-07-23T01:52:57;99687.81;;;17.15;100.00
24858;BME280;12935;50.782;6.074;2022-07-23T01:55:22;99680.31;;;17.15;100.00
24858;BME280;12935;50.782;6.074;2022-07-23T01:57:48;99677.00;;;17.04;100.00
24858;BME280;12935;50.782;6.074;2022-07-23T02:00:13;99676.16;;;17.07;100.00
24858;BME280;12935;50.782;6.074;2022-07-23T02:02:39;99679.59;;;17.11;100.00
24858;BME280;12935;50.782;6.074;2022-07-23T02:05:04;99678.81;;;17.11;100.00
24858;BME280;12935;50.782;6.074;2022-07-23T02:07:29;99680.81;;;17.10;100.00
24858;BME280;12935;50.782;6.074;2022-07-23T02:09:55;99682.72;;;16.97;100.00
24858;BME280;12935;50.782;6.074;2022-07-23T02:12:20;99684.09;;;16.89;100.00
24858;BME280;12935;50.782;6.074;2022-07-23T02:14:45;99677.28;;;16.94;100.00
24858;BME280;12935;50.782;6.074;2022-07-23T02:17:10;99674.25;;;17.04;100.00
24858;BME280;12935;50.782;6.074;2022-07-23T02:19:36;99680.97;;;17.03;100.00
24858;BME280;12935;50.782;6.074;2022-07-23T02:22:01;99677.44;;;17.03;100.00
24858;BME280;12935;50.782;6.074;2022-07-23T02:24:26;99679.25;;;17.09;100.00
24858;BME280;12935;50.782;6.074;2022-07-23T02:26:52;99683.91;;;17.12;100.00
24858;BME280;12935;50.782;6.074;2022-07-23T02:29:17;99680.13;;;17.06;100.00
24858;BME280;12935;50.782;6.074;2022-07-23T02:31:42;99680.97;;;17.03;100.00
24858;BME280;12935;50.782;6.074;2022-07-23T02:34:07;99686.16;;;17.01;100.00
24858;BME280;12935;50.782;6.074;2022-07-23T02:36:36;99685.38;;;17.01;100.00
24858;BME280;12935;50.782;6.074;2022-07-23T02:39:01;99691.34;;;16.99;100.00
24858;BME280;12935;50.782;6.074;2022-07-23T02:41:27;99677.03;;;16.88;100.00
24858;BME280;12935;50.782;6.074;2022-07-23T02:43:52;99687.13;;;16.78;100.00
24858;BME280;12935;50.782;6.074;2022-07-23T02:46:17;99690.47;;;16.86;100.00
24858;BME280;12935;50.782;6.074;2022-07-23T02:48:43;99694.00;;;16.87;100.00
24858;BME280;12935;50.782;6.074;2022-07-23T02:51:08;99693.22;;;16.86;100.00
24858;BME280;12935;50.782;6.074;2022-07-23T02:53:33;99685.38;;;16.84;100.00
24858;BME280;12935;50.782;6.074;2022-07-23T02:55:59;99691.00;;;16.81;100.00
24858;BME280;12935;50.782;6.074;2022-07-23T02:58:24;99686.69;;;16.80;100.00
24858;BME280;12935;50.782;6.074;2022-07-23T03:00:52;99686.84;;;16.89;100.00
24858;BME280;12935;50.782;6.074;2022-07-23T03:03:17;99686.34;;;16.94;100.00
24858;BME280;12935;50.782;6.074;2022-07-23T03:05:42;99690.91;;;16.84;100.00
24858;BME280;12935;50.782;6.074;2022-07-23T03:08:08;99690.47;;;16.86;100.00
24858;BME280;12935;50.782;6.074;2022-07-23T03:10:33;99691.53;;;16.92;100.00
24858;BME280;12935;50.782;6.074;2022-07-23T03:12:58;99683.66;;;16.91;100.00
24858;BME280;12935;50.782;6.074;2022-07-23T03:15:24;99694.63;;;16.78;100.00
24858;BME280;12935;50.782;6.074;2022-07-23T03:17:49;99688.50;;;16.70;100.00
24858;BME280;12935;50.782;6.074;2022-07-23T03:20:14;99693.81;;;16.61;100.00
24858;BME280;12935;50.782;6.074;2022-07-23T03:22:39;99695.78;;;16.61;100.00
24858;BME280;12935;50.782;6.074;2022-07-23T03:25:05;99704.72;;;16.68;100.00
24858;BME280;12935;50.782;6.074;2022-07-23T03:27:31;99695.31;;;16.66;100.00
24858;BME280;12935;50.782;6.074;2022-07-23T03:29:58;99697.41;;;16.58;100.00
24858;BME280;12935;50.782;6.074;2022-07-23T03:32:24;99698.56;;;16.61;100.00
24858;BME280;12935;50.782;6.074;2022-07-23T03:34:51;99697.53;;;16.71;100.00
24858;BME280;12935;50.782;6.074;2022-07-23T03:37:17;99694.19;;;16.63;100.00
24858;BME280;12935;50.782;6.074;2022-07-23T03:39:42;99695.75;;;16.64;100.00
24858;BME280;12935;50.782;6.074;2022-07-23T03:42:08;99696.09;;;16.66;100.00
24858;BME280;12935;50.782;6.074;2022-07-23T03:44:33;99700.88;;;16.62;100.00
24858;BME280;12935;50.782;6.074;2022-07-23T03:46:59;99696.91;;;16.47;100.00
24858;BME280;12935;50.782;6.074;2022-07-23T03:49:24;99698.09;;;16.46;100.00
24858;BME280;12935;50.782;6.074;2022-07-23T03:51:50;99691.97;;;16.55;100.00
24858;BME280;12935;50.782;6.074;2022-07-23T03:54:15;99698.28;;;16.55;100.00
24858;BME280;12935;50.782;6.074;2022-07-23T03:56:41;99706.28;;;16.49;100.00
24858;BME280;12935;50.782;6.074;2022-07-23T03:59:07;99706.66;;;16.52;100.00
24858;BME280;12935;50.782;6.074;2022-07-23T04:01:33;99695.44;;;16.59;100.00
24858;BME280;12935;50.782;6.074;2022-07-23T04:03:58;99713.84;;;16.65;100.00
24858;BME280;12935;50.782;6.074;2022-07-23T04:06:24;99714.88;;;16.71;100.00
24858;BME280;12935;50.782;6.074;2022-07-23T04:08:49;99706.94;;;16.73;100.00
24858;BME280;12935;50.782;6.074;2022-07-23T04:11:14;99702.47;;;16.63;100.00
24858;BME280;12935;50.782;6.074;2022-07-23T04:13:40;99715.31;;;16.70;100.00
24858;BME280;12935;50.782;6.074;2022-07-23T04:16:05;99722.47;;;16.67;100.00
24858;BME280;12935;50.782;6.074;2022-07-23T04:18:31;99715.06;;;16.64;100.00
24858;BME280;12935;50.782;6.074;2022-07-23T04:20:56;99727.28;;;16.63;100.00
24858;BME280;12935;50.782;6.074;2022-07-23T04:23:22;99720.94;;;16.66;100.00
24858;BME280;12935;50.782;6.074;2022-07-23T04:25:47;99722.47;;;16.67;100.00
24858;BME280;12935;50.782;6.074;2022-07-23T04:28:12;99726.34;;;16.70;100.00
24858;BME280;12935;50.782;6.074;2022-07-23T04:30:38;99733.53;;;16.67;100.00
24858;BME280;12935;50.782;6.074;2022-07-23T04:33:03;99726.78;;;16.68;100.00
24858;BME280;12935;50.782;6.074;2022-07-23T04:35:31;99737.56;;;16.79;100.00
24858;BME280;12935;50.782;6.074;2022-07-23T04:37:58;99744.66;;;16.80;100.00
24858;BME280;12935;50.782;6.074;2022-07-23T04:40:23;99740.50;;;16.72;100.00
24858;BME280;12935;50.782;6.074;2022-07-23T04:42:48;99746.09;;;16.68;100.00
24858;BME280;12935;50.782;6.074;2022-07-23T04:45:13;99749.91;;;16.74;100.00
24858;BME280;12935;50.782;6.074;2022-07-23T04:47:39;99752.75;;;16.87;100.00
24858;BME280;12935;50.782;6.074;2022-07-23T04:50:04;99759.25;;;16.97;100.00
24858;BME280;12935;50.782;6.074;2022-07-23T04:52:29;99749.06;;;16.94;100.00
24858;BME280;12935;50.782;6.074;2022-07-23T04:54:54;99750.19;;;16.96;100.00
24858;BME280;12935;50.782;6.074;2022-07-23T04:57:20;99752.25;;;17.08;100.00
24858;BME280;12935;50.782;6.074;2022-07-23T04:59:45;99757.34;;;17.10;100.00
24858;BME280;12935;50.782;6.074;2022-07-23T05:02:10;99761.47;;;17.18;100.00
24858;BME280;12935;50.782;6.074;2022-07-23T05:04:35;99765.28;;;17.08;100.00
24858;BME280;12935;50.782;6.074;2022-07-23T05:07:01;99754.94;;;16.96;100.00
24858;BME280;12935;50.782;6.074;2022-07-23T05:09:26;99753.53;;;17.04;100.00
24858;BME280;12935;50.782;6.074;2022-07-23T05:11:51;99760.81;;;17.14;100.00
24858;BME280;12935;50.782;6.074;2022-07-23T05:14:17;99749.41;;;17.12;100.00
24858;BME280;12935;50.782;6.074;2022-07-23T05:16:42;99765.91;;;17.15;100.00
24858;BME280;12935;50.782;6.074;2022-07-23T05:19:07;99759.41;;;17.06;100.00
24858;BME280;12935;50.782;6.074;2022-07-23T05:21:33;99757.44;;;17.06;100.00
24858;BME280;12935;50.782;6.074;2022-07-23T05:23:58;99764.78;;;17.13;100.00
24858;BME280;12935;50.782;6.074;2022-07-23T05:26:24;99768.75;;;17.28;100.00
24858;BME280;12935;50.782;6.074;2022-07-23T05:28:50;99758.97;;;17.40;100.00
24858;BME280;12935;50.782;6.074;2022-07-23T05:31:15;99754.22;;;17.40;100.00
24858;BME280;12935;50.782;6.074;2022-07-23T05:33:41;99764.84;;;17.42;100.00
24858;BME280;12935;50.782;6.074;2022-07-23T05:36:06;99763.28;;;17.41;100.00
24858;BME280;12935;50.782;6.074;2022-07-23T05:38:32;99767.41;;;17.33;100.00
24858;BME280;12935;50.782;6.074;2022-07-23T05:40:57;99774.00;;;17.23;100.00
24858;BME280;12935;50.782;6.074;2022-07-23T05:43:23;99781.69;;;17.31;100.00
24858;BME280;12935;50.782;6.074;2022-07-23T05:45:48;99777.69;;;17.48;100.00
24858;BME280;12935;50.782;6.074;2022-07-23T05:48:13;99776.13;;;17.47;100.00
24858;BME280;12935;50.782;6.074;2022-07-23T05:50:38;99780.38;;;17.36;100.00
24858;BME280;12935;50.782;6.074;2022-07-23T05:53:04;99779.88;;;17.25;100.00
24858;BME280;12935;50.782;6.074;2022-07-23T05:55:29;99784.88;;;17.30;100.00
24858;BME280;12935;50.782;6.074;2022-07-23T05:57:57;99784.53;;;17.28;100.00
24858;BME280;12935;50.782;6.074;2022-07-23T06:00:22;99790.91;;;17.25;100.00
24858;BME280;12935;50.782;6.074;2022-07-23T06:02:48;99780.38;;;17.19;100.00
24858;BME280;12935;50.782;6.074;2022-07-23T06:05:14;99786.09;;;17.12;100.00
24858;BME280;12935;50.782;6.074;2022-07-23T06:07:39;99789.63;;;17.13;100.00
24858;BME280;12935;50.782;6.074;2022-07-23T06:10:05;99790.41;;;17.13;100.00
24858;BME280;12935;50.782;6.074;2022-07-23T06:12:30;99795.66;;;17.08;100.00
24858;BME280;12935;50.782;6.074;2022-07-23T06:14:56;99797.63;;;17.07;100.00
24858;BME280;12935;50.782;6.074;2022-07-23T06:17:21;99794.03;;;17.10;100.00
24858;BME280;12935;50.782;6.074;2022-07-23T06:19:47;99792.13;;;17.07;100.00
24858;BME280;12935;50.782;6.074;2022-07-23T06:22:12;99797.97;;;17.09;100.00
24858;BME280;12935;50.782;6.074;2022-07-23T06:24:37;99794.97;;;17.20;100.00
24858;BME280;12935;50.782;6.074;2022-07-23T06:27:03;99800.84;;;17.22;100.00
24858;BME280;12935;50.782;6.074;2022-07-23T06:29:28;99793.94;;;17.30;100.00
24858;BME280;12935;50.782;6.074;2022-07-23T06:31:54;99804.88;;;17.34;100.00
24858;BME280;12935;50.782;6.074;2022-07-23T06:34:19;99802.03;;;17.37;100.00
24858;BME280;12935;50.782;6.074;2022-07-23T06:36:44;99810.94;;;17.45;100.00
24858;BME280;12935;50.782;6.074;2022-07-23T06:39:09;99803.94;;;17.57;100.00
24858;BME280;12935;50.782;6.074;2022-07-23T06:41:35;99812.31;;;17.69;100.00
24858;BME280;12935;50.782;6.074;2022-07-23T06:44:00;99809.63;;;17.66;100.00
24858;BME280;12935;50.782;6.074;2022-07-23T06:46:26;99811.84;;;17.87;100.00
24858;BME280;12935;50.782;6.074;2022-07-23T06:48:51;99813.63;;;18.10;100.00
24858;BME280;12935;50.782;6.074;2022-07-23T06:51:16;99811.13;;;18.28;100.00
24858;BME280;12935;50.782;6.074;2022-07-23T06:53:42;99814.91;;;18.34;100.00
24858;BME280;12935;50.782;6.074;2022-07-23T06:56:07;99818.88;;;18.33;100.00
24858;BME280;12935;50.782;6.074;2022-07-23T06:58:32;99815.56;;;18.26;100.00
24858;BME280;12935;50.782;6.074;2022-07-23T07:00:58;99812.28;;;18.14;100.00
24858;BME280;12935;50.782;6.074;2022-07-23T07:03:23;99820.84;;;18.20;100.00
24858;BME280;12935;50.782;6.074;2022-07-23T07:05:49;99809.09;;;18.16;100.00
24858;BME280;12935;50.782;6.074;2022-07-23T07:08:15;99812.38;;;18.11;100.00
24858;BME280;12935;50.782;6.074;2022-07-23T07:10:40;99804.56;;;18.09;100.00
24858;BME280;12935;50.782;6.074;2022-07-23T07:13:05;99820.75;;;18.23;100.00
24858;BME280;12935;50.782;6.074;2022-07-23T07:15:31;99817.84;;;18.27;100.00
24858;BME280;12935;50.782;6.074;2022-07-23T07:17:56;99830.69;;;18.21;100.00
24858;BME280;12935;50.782;6.074;2022-07-23T07:20:21;99826.13;;;18.14;100.00
24858;BME280;12935;50.782;6.074;2022-07-23T07:22:46;99837.09;;;18.18;100.00
24858;BME280;12935;50.782;6.074;2022-07-23T07:25:12;99831.41;;;18.38;100.00
24858;BME280;12935;50.782;6.074;2022-07-23T07:27:37;99826.34;;;18.49;100.00
24858;BME280;12935;50.782;6.074;2022-07-23T07:30:04;99828.75;;;18.34;100.00
24858;BME280;12935;50.782;6.074;2022-07-23T07:32:29;99822.84;;;18.19;100.00
24858;BME280;12935;50.782;6.074;2022-07-23T07:34:54;99826.28;;;18.23;100.00
24858;BME280;12935;50.782;6.074;2022-07-23T07:37:20;99821.56;;;18.37;100.00
24858;BME280;12935;50.782;6.074;2022-07-23T07:39:45;99833.16;;;18.32;100.00
24858;BME280;12935;50.782;6.074;2022-07-23T07:42:10;99833.81;;;18.23;100.00
24858;BME280;12935;50.782;6.074;2022-07-23T07:44:35;99847.47;;;18.43;100.00
24858;BME280;12935;50.782;6.074;2022-07-23T07:47:01;99846.00;;;18.67;100.00
24858;BME280;12935;50.782;6.074;2022-07-23T07:49:26;99859.50;;;18.65;100.00
24858;BME280;12935;50.782;6.074;2022-07-23T07:51:51;99856.31;;;18.79;100.00
24858;BME280;12935;50.782;6.074;2022-07-23T07:54:17;99859.78;;;18.96;100.00
24858;BME280;12935;50.782;6.074;2022-07-23T07:56:42;99863.88;;;18.91;100.00
24858;BME280;12935;50.782;6.074;2022-07-23T07:59:07;99852.91;;;19.01;100.00
24858;BME280;12935;50.782;6.074;2022-07-23T08:01:33;99855.69;;;19.01;100.00
24858;BME280;12935;50.782;6.074;2022-07-23T08:03:58;99864.69;;;19.17;100.00
24858;BME280;12935;50.782;6.074;2022-07-23T08:06:23;99854.72;;;19.20;100.00
24858;BME280;12935;50.782;6.074;2022-07-23T08:08:49;99872.44;;;19.35;100.00
24858;BME280;12935;50.782;6.074;2022-07-23T08:11:14;99873.97;;;19.49;100.00
24858;BME280;12935;50.782;6.074;2022-07-23T08:13:39;99864.19;;;19.70;100.00
24858;BME280;12935;50.782;6.074;2022-07-23T08:16:06;99863.19;;;19.76;100.00
24858;BME280;12935;50.782;6.074;2022-07-23T08:18:31;99855.09;;;19.82;100.00
24858;BME280;12935;50.782;6.074;2022-07-23T08:20:56;99861.22;;;19.64;100.00
24858;BME280;12935;50.782;6.074;2022-07-23T08:23:21;99867.97;;;19.76;100.00
24858;BME280;12935;50.782;6.074;2022-07-23T08:25:47;99859.69;;;19.50;100.00
24858;BME280;12935;50.782;6.074;2022-07-23T08:28:14;99868.53;;;19.71;100.00
24858;BME280;12935;50.782;6.074;2022-07-23T08:30:41;99872.94;;;19.68;100.00
24858;BME280;12935;50.782;6.074;2022-07-23T08:33:12;99872.94;;;20.15;100.00
24858;BME280;12935;50.782;6.074;2022-07-23T08:35:46;99874.47;;;20.51;100.00
24858;BME280;12935;50.782;6.074;2022-07-23T08:38:15;99865.47;;;20.90;100.00
24858;BME280;12935;50.782;6.074;2022-07-23T08:40:45;99873.22;;;21.26;100.00
24858;BME280;12935;50.782;6.074;2022-07-23T08:43:13;99868.03;;;21.38;100.00
24858;BME280;12935;50.782;6.074;2022-07-23T08:45:45;99862.53;;;21.65;100.00
24858;BME280;12935;50.782;6.074;2022-07-23T08:48:19;99874.38;;;21.38;100.00
24858;BME280;12935;50.782;6.074;2022-07-23T08:50:46;99875.13;;;21.08;100.00
24858;BME280;12935;50.782;6.074;2022-07-23T08:53:12;99873.63;;;20.85;100.00
24858;BME280;12935;50.782;6.074;2022-07-23T08:55:37;99877.19;;;20.42;100.00
24858;BME280;12935;50.782;6.074;2022-07-23T08:58:03;99884.91;;;20.25;100.00
24858;BME280;12935;50.782;6.074;2022-07-23T09:00:29;99883.59;;;20.73;100.00
24858;BME280;12935;50.782;6.074;2022-07-23T09:02:54;99883.09;;;20.96;100.00
24858;BME280;12935;50.782;6.074;2022-07-23T09:05:20;99890.28;;;21.16;100.00
24858;BME280;12935;50.782;6.074;2022-07-23T09:08:08;99889.81;;;21.08;100.00
24858;BME280;12935;50.782;6.074;2022-07-23T09:19:12;99889.94;;;21.85;100.00
24858;BME280;12935;50.782;6.074;2022-07-23T09:21:34;99890.22;;;21.78;100.00
24858;BME280;12935;50.782;6.074;2022-07-23T09:24:04;99888.38;;;21.93;100.00
24858;BME280;12935;50.782;6.074;2022-07-23T09:29:04;99876.38;;;22.23;100.00
24858;BME280;12935;50.782;6.074;2022-07-23T09:32:02;99882.41;;;22.22;100.00
24858;BME280;12935;50.782;6.074;2022-07-23T09:34:35;99881.00;;;22.26;100.00
24858;BME280;12935;50.782;6.074;2022-07-23T09:37:12;99878.56;;;22.19;100.00
24858;BME280;12935;50.782;6.074;2022-07-23T09:39:39;99884.09;;;22.37;100.00
24858;BME280;12935;50.782;6.074;2022-07-23T09:44:47;99882.38;;;22.77;100.00
24858;BME280;12935;50.782;6.074;2022-07-23T09:47:13;99874.75;;;22.95;100.00
24858;BME280;12935;50.782;6.074;2022-07-23T09:49:38;99873.00;;;23.07;100.00
24858;BME280;12935;50.782;6.074;2022-07-23T09:52:04;99873.28;;;23.18;100.00
24858;BME280;12935;50.782;6.074;2022-07-23T09:54:30;99876.25;;;23.05;100.00
24858;BME280;12935;50.782;6.074;2022-07-23T09:56:59;99879.72;;;22.91;96.71
24858;BME280;12935;50.782;6.074;2022-07-23T09:59:27;99874.34;;;22.79;94.84
24858;BME280;12935;50.782;6.074;2022-07-23T10:01:55;99865.34;;;22.74;100.00
24858;BME280;12935;50.782;6.074;2022-07-23T10:04:23;99870.75;;;22.87;100.00
24858;BME280;12935;50.782;6.074;2022-07-23T10:06:51;99871.97;;;22.86;100.00
24858;BME280;12935;50.782;6.074;2022-07-23T10:09:27;99875.22;;;22.94;95.07
24858;BME280;12935;50.782;6.074;2022-07-23T10:11:55;99874.72;;;23.04;87.04
24858;BME280;12935;50.782;6.074;2022-07-23T10:14:25;99874.81;;;23.19;100.00
24858;BME280;12935;50.782;6.074;2022-07-23T10:16:51;99873.44;;;23.48;97.02
24858;BME280;12935;50.782;6.074;2022-07-23T10:19:17;99869.88;;;23.56;95.28
24858;BME280;12935;50.782;6.074;2022-07-23T10:21:49;99878.84;;;23.84;93.03
24858;BME280;12935;50.782;6.074;2022-07-23T10:24:43;99875.84;;;24.11;93.03
24858;BME280;12935;50.782;6.074;2022-07-23T10:30:11;99873.06;;;24.50;82.78
24858;BME280;12935;50.782;6.074;2022-07-23T10:35:25;99878.66;;;24.79;78.94
24858;BME280;12935;50.782;6.074;2022-07-23T10:37:56;99870.09;;;24.68;85.40
24858;BME280;12935;50.782;6.074;2022-07-23T10:40:26;99872.38;;;24.40;80.48
24858;BME280;12935;50.782;6.074;2022-07-23T10:42:58;99868.25;;;24.65;82.52
24858;BME280;12935;50.782;6.074;2022-07-23T10:47:50;99858.13;;;25.82;80.28
24858;BME280;12935;50.782;6.074;2022-07-23T10:50:26;99868.59;;;26.48;75.80
24858;BME280;12935;50.782;6.074;2022-07-23T10:57:57;99856.25;;;27.60;61.18
24858;BME280;12935;50.782;6.074;2022-07-23T11:00:26;99861.78;;;27.86;58.57
24858;BME280;12935;50.782;6.074;2022-07-23T11:02:56;99869.00;;;28.09;56.06
24858;BME280;12935;50.782;6.074;2022-07-23T11:05:24;99864.50;;;28.34;52.53
24858;BME280;12935;50.782;6.074;2022-07-23T11:10:35;99862.34;;;28.01;52.54
24858;BME280;12935;50.782;6.074;2022-07-23T11:34:40;99863.63;;;29.95;42.80
24858;BME280;12935;50.782;6.074;2022-07-23T11:37:07;99863.81;;;29.17;41.93
24858;BME280;12935;50.782;6.074;2022-07-23T11:39:33;99869.38;;;28.39;43.54
24858;BME280;12935;50.782;6.074;2022-07-23T11:42:00;99871.28;;;28.00;45.50
24858;BME280;12935;50.782;6.074;2022-07-23T11:44:30;99870.53;;;28.10;43.29
24858;BME280;12935;50.782;6.074;2022-07-23T11:46:59;99870.25;;;28.03;47.00
24858;BME280;12935;50.782;6.074;2022-07-23T11:49:25;99859.78;;;28.03;43.97
24858;BME280;12935;50.782;6.074;2022-07-23T11:54:32;99871.34;;;28.16;43.80
24858;BME280;12935;50.782;6.074;2022-07-23T11:57:01;99872.53;;;27.99;41.79
24858;BME280;12935;50.782;6.074;2022-07-23T11:59:30;99872.81;;;28.01;43.93
24858;BME280;12935;50.782;6.074;2022-07-23T12:02:02;99872.50;;;28.75;43.88
24858;BME280;12935;50.782;6.074;2022-07-23T12:04:47;99863.75;;;28.39;41.70
24858;BME280;12935;50.782;6.074;2022-07-23T12:07:41;99862.03;;;28.81;43.34
24858;BME280;12935;50.782;6.074;2022-07-23T12:10:24;99860.50;;;29.19;40.88
24858;BME280;12935;50.782;6.074;2022-07-23T12:12:58;99867.94;;;28.94;40.25
24858;BME280;12935;50.782;6.074;2022-07-23T12:15:26;99865.06;;;29.50;40.34
24858;BME280;12935;50.782;6.074;2022-07-23T12:17:53;99875.09;;;29.06;38.74
24858;BME280;12935;50.782;6.074;2022-07-23T12:20:24;99871.00;;;28.79;40.50
24858;BME280;12935;50.782;6.074;2022-07-23T12:22:52;99866.38;;;28.87;40.81
24858;BME280;12935;50.782;6.074;2022-07-23T12:25:20;99867.66;;;28.81;39.60
24858;BME280;12935;50.782;6.074;2022-07-23T12:27:58;99871.19;;;28.59;40.55
24858;BME280;12935;50.782;6.074;2022-07-23T12:30:26;99871.72;;;28.63;41.03
24858;BME280;12935;50.782;6.074;2022-07-23T12:32:54;99861.25;;;29.19;40.17
24858;BME280;12935;50.782;6.074;2022-07-23T12:35:21;99859.47;;;30.19;38.70
24858;BME280;12935;50.782;6.074;2022-07-23T12:37:48;99848.69;;;30.64;37.48
24858;BME280;12935;50.782;6.074;2022-07-23T12:40:34;99851.19;;;29.63;38.05
24858;BME280;12935;50.782;6.074;2022-07-23T12:43:11;99850.75;;;29.37;40.75
24858;BME280;12935;50.782;6.074;2022-07-23T12:45:52;99859.72;;;29.41;40.07
24858;BME280;12935;50.782;6.074;2022-07-23T12:50:56;99858.94;;;29.12;39.60
24858;BME280;12935;50.782;6.074;2022-07-23T12:53:39;99860.72;;;29.49;39.06
24858;BME280;12935;50.782;6.074;2022-07-23T12:56:10;99862.81;;;29.09;39.19
24858;BME280;12935;50.782;6.074;2022-07-23T12:58:43;99857.66;;;29.58;40.10
24858;BME280;12935;50.782;6.074;2022-07-23T13:01:10;99853.13;;;30.48;38.81
24858;BME280;12935;50.782;6.074;2022-07-23T13:03:39;99855.31;;;31.56;36.27
24858;BME280;12935;50.782;6.074;2022-07-23T13:06:08;99844.09;;;31.94;35.72
24858;BME280;12935;50.782;6.074;2022-07-23T13:08:36;99846.88;;;33.46;35.08
24858;BME280;12935;50.782;6.074;2022-07-23T13:11:02;99849.19;;;35.95;31.07
24858;BME280;12935;50.782;6.074;2022-07-23T13:13:29;99849.66;;;35.22;30.40
24858;BME280;12935;50.782;6.074;2022-07-23T13:15:57;99845.00;;;32.90;32.90
24858;BME280;12935;50.782;6.074;2022-07-23T13:18:22;99847.38;;;31.98;34.55
24858;BME280;12935;50.782;6.074;2022-07-23T13:20:48;99847.59;;;32.75;35.50
24858;BME280;12935;50.782;6.074;2022-07-23T13:23:14;99855.66;;;36.47;31.68
24858;BME280;12935;50.782;6.074;2022-07-23T13:25:40;99850.63;;;38.97;26.51
24858;BME280;12935;50.782;6.074;2022-07-23T13:28:06;99853.91;;;39.60;26.95
24858;BME280;12935;50.782;6.074;2022-07-23T13:30:32;99854.88;;;40.51;24.74
24858;BME280;12935;50.782;6.074;2022-07-23T13:32:57;99849.13;;;40.78;23.83
24858;BME280;12935;50.782;6.074;2022-07-23T13:35:23;99855.72;;;41.08;22.96
24858;BME280;12935;50.782;6.074;2022-07-23T13:37:48;99844.91;;;42.31;21.98
24858;BME280;12935;50.782;6.074;2022-07-23T13:40:14;99858.03;;;43.68;21.61
24858;BME280;12935;50.782;6.074;2022-07-23T13:42:39;99854.31;;;44.55;20.13
24858;BME280;12935;50.782;6.074;2022-07-23T13:45:06;99845.66;;;45.25;20.13
24858;BME280;12935;50.782;6.074;2022-07-23T13:47:31;99842.22;;;45.40;18.85